createdAt,value
2018-01-13T00:01:51.550Z,47.10
2018-01-13T00:04:19.020Z,46.83
2018-01-13T00:06:46.500Z,47.00
2018-01-13T00:09:14.741Z,44.60
2018-01-13T00:11:42.217Z,44.43
2018-01-13T00:14:09.700Z,42.90
2018-01-13T00:16:37.193Z,48.70
2018-01-13T00:19:04.664Z,42.50
2018-01-13T00:21:32.190Z,42.93
2018-01-13T00:23:59.661Z,45.10
2018-01-13T00:26:27.152Z,42.03
2018-01-13T00:28:54.672Z,41.60
2018-01-13T00:31:22.149Z,40.27
2018-01-13T00:33:49.657Z,43.27
2018-01-13T00:36:17.919Z,40.43
2018-01-13T00:38:45.406Z,37.97
2018-01-13T00:41:12.875Z,38.47
2018-01-13T00:43:40.373Z,37.17
2018-01-13T00:46:07.839Z,36.37
2018-01-13T00:48:35.313Z,36.83
2018-01-13T00:51:02.807Z,35.77
2018-01-13T00:53:30.276Z,35.60
2018-01-13T00:55:57.769Z,36.53
2018-01-13T00:58:25.240Z,41.83
2018-01-13T01:00:52.723Z,36.90
2018-01-13T01:03:20.965Z,38.30
2018-01-13T01:05:48.440Z,35.37
2018-01-13T01:08:15.918Z,37.60
2018-01-13T01:10:44.186Z,35.43
2018-01-13T01:13:12.425Z,37.40
2018-01-13T01:15:39.899Z,36.53
2018-01-13T01:18:07.373Z,37.03
2018-01-13T01:20:35.609Z,37.03
2018-01-13T01:23:03.082Z,35.83
2018-01-13T01:25:30.548Z,34.27
2018-01-13T01:27:58.025Z,34.23
2018-01-13T01:30:26.256Z,33.07
2018-01-13T01:32:53.740Z,32.47
2018-01-13T01:35:21.211Z,34.63
2018-01-13T01:37:48.698Z,33.03
2018-01-13T01:40:16.195Z,33.10
2018-01-13T01:42:43.664Z,34.73
2018-01-13T01:45:11.140Z,34.53
2018-01-13T01:47:38.620Z,35.83
2018-01-13T01:50:06.865Z,33.37
2018-01-13T01:52:34.328Z,34.43
2018-01-13T01:55:01.823Z,33.80
2018-01-13T01:57:29.293Z,35.37
2018-01-13T01:59:56.773Z,33.37
2018-01-13T02:02:24.259Z,32.70
2018-01-13T02:04:51.753Z,33.07
2018-01-13T02:07:19.236Z,32.17
2018-01-13T02:09:46.713Z,32.10
2018-01-13T02:12:14.461Z,32.00
2018-01-13T02:14:41.929Z,32.13
2018-01-13T02:17:09.406Z,32.50
2018-01-13T02:19:36.879Z,31.57
2018-01-13T02:22:04.353Z,31.33
2018-01-13T02:24:32.596Z,30.73
2018-01-13T02:27:00.077Z,29.97
2018-01-13T02:29:27.545Z,30.30
2018-01-13T02:31:55.776Z,30.30
2018-01-13T02:34:23.526Z,30.40
2018-01-13T02:36:51.000Z,31.50
2018-01-13T02:39:18.484Z,28.77
2018-01-13T02:41:45.953Z,29.00
2018-01-13T02:44:13.424Z,41.10
2018-01-13T02:46:41.665Z,30.67
2018-01-13T02:49:09.136Z,29.23
2018-01-13T02:51:36.608Z,29.53
2018-01-13T02:54:04.080Z,28.33
2018-01-13T02:56:32.318Z,26.80
2018-01-13T02:58:59.801Z,28.77
2018-01-13T03:01:27.261Z,29.37
2018-01-13T03:03:55.496Z,28.20
2018-01-13T03:06:22.973Z,27.60
2018-01-13T03:08:50.436Z,29.07
2018-01-13T03:11:17.919Z,28.50
2018-01-13T03:13:46.153Z,28.90
2018-01-13T03:16:13.629Z,30.07
2018-01-13T03:18:41.096Z,28.50
2018-01-13T03:21:08.567Z,28.73
2018-01-13T03:23:36.808Z,29.27
2018-01-13T03:26:04.288Z,26.43
2018-01-13T03:28:31.755Z,26.93
2018-01-13T03:30:59.997Z,27.97
2018-01-13T03:33:27.491Z,27.73
2018-01-13T03:35:55.729Z,25.53
2018-01-13T03:38:23.200Z,27.23
2018-01-13T03:40:50.664Z,26.73
2018-01-13T03:43:18.148Z,26.03
2018-01-13T03:45:46.388Z,25.53
2018-01-13T03:48:13.864Z,27.53
2018-01-13T03:50:41.335Z,28.60
2018-01-13T03:53:09.581Z,27.10
2018-01-13T03:55:37.049Z,27.37
2018-01-13T03:58:04.530Z,26.57
2018-01-13T04:00:32.760Z,26.40
2018-01-13T04:03:00.229Z,28.20
2018-01-13T04:05:27.708Z,25.77
2018-01-13T04:07:55.181Z,26.17
2018-01-13T04:10:22.681Z,26.53
2018-01-13T04:12:50.153Z,28.60
2018-01-13T04:15:17.637Z,24.53
2018-01-13T04:17:45.103Z,24.73
2018-01-13T04:20:12.576Z,25.03
2018-01-13T04:22:40.812Z,24.50
2018-01-13T04:25:08.280Z,25.40
2018-01-13T04:27:35.747Z,25.23
2018-01-13T04:30:03.464Z,25.77
2018-01-13T04:32:30.944Z,25.70
2018-01-13T04:34:58.404Z,26.17
2018-01-13T04:37:25.885Z,26.40
2018-01-13T04:39:53.356Z,27.77
2018-01-13T04:42:21.592Z,25.47
2018-01-13T04:44:49.068Z,25.20
2018-01-13T04:47:16.552Z,25.40
2018-01-13T04:49:44.785Z,26.33
2018-01-13T04:52:12.272Z,24.17
2018-01-13T04:54:39.751Z,27.13
2018-01-13T04:57:07.990Z,26.57
2018-01-13T04:59:35.456Z,28.37
2018-01-13T05:02:02.940Z,28.30
2018-01-13T05:04:31.175Z,25.67
2018-01-13T05:06:58.645Z,28.70
2018-01-13T05:09:26.121Z,26.83
2018-01-13T05:11:53.592Z,27.40
2018-01-13T05:14:21.835Z,24.73
2018-01-13T05:16:49.296Z,24.87
2018-01-13T05:19:16.779Z,28.17
2018-01-13T05:21:45.021Z,25.13
2018-01-13T05:24:12.500Z,28.17
2018-01-13T05:26:39.972Z,25.53
2018-01-13T05:29:08.216Z,21.27
2018-01-13T05:31:35.684Z,22.37
2018-01-13T05:34:03.160Z,23.47
2018-01-13T05:36:31.401Z,23.90
2018-01-13T05:38:58.896Z,20.73
2018-01-13T05:41:26.364Z,23.13
2018-01-13T05:43:54.607Z,22.00
2018-01-13T05:46:22.080Z,20.43
2018-01-13T05:48:49.548Z,20.30
2018-01-13T05:51:17.792Z,21.07
2018-01-13T05:53:45.256Z,19.73
2018-01-13T05:56:12.732Z,22.70
2018-01-13T05:58:40.199Z,19.80
2018-01-13T06:01:08.448Z,22.20
2018-01-13T06:03:35.918Z,22.50
2018-01-13T06:06:03.384Z,21.40
2018-01-13T06:08:30.858Z,21.40
2018-01-13T06:10:59.101Z,21.07
2018-01-13T06:13:26.576Z,20.63
2018-01-13T06:15:54.088Z,17.73
2018-01-13T06:18:21.561Z,17.37
2018-01-13T06:20:49.032Z,15.93
2018-01-13T06:23:16.512Z,15.83
2018-01-13T06:25:43.977Z,15.47
2018-01-13T06:28:11.448Z,15.80
2018-01-13T06:30:39.709Z,16.67
2018-01-13T06:33:07.180Z,15.57
2018-01-13T06:35:35.416Z,14.50
2018-01-13T06:38:02.887Z,15.93
2018-01-13T06:40:30.357Z,24.20
2018-01-13T06:42:57.840Z,19.10
2018-01-13T06:45:26.075Z,15.33
2018-01-13T06:47:53.549Z,15.67
2018-01-13T06:50:21.024Z,14.20
2018-01-13T06:52:49.264Z,14.87
2018-01-13T06:55:16.743Z,14.73
2018-01-13T06:57:44.212Z,15.13
2018-01-13T07:00:12.476Z,14.63
2018-01-13T07:02:39.946Z,15.03
2018-01-13T07:05:08.185Z,15.30
2018-01-13T07:07:35.658Z,15.50
2018-01-13T07:10:03.126Z,14.73
2018-01-13T07:12:30.599Z,14.53
2018-01-13T07:14:58.848Z,14.70
2018-01-13T07:17:26.317Z,15.53
2018-01-13T07:19:53.808Z,14.63
2018-01-13T07:22:21.282Z,15.60
2018-01-13T07:24:48.748Z,15.30
2018-01-13T07:27:16.236Z,15.70
2018-01-13T07:29:43.691Z,15.20
2018-01-13T07:32:11.428Z,15.43
2018-01-13T07:34:38.900Z,14.50
2018-01-13T07:37:06.376Z,16.27
2018-01-13T07:39:33.848Z,15.90
2018-01-13T07:42:01.326Z,15.07
2018-01-13T07:44:29.561Z,16.10
2018-01-13T07:46:57.036Z,16.53
2018-01-13T07:49:24.513Z,16.13
2018-01-13T07:51:52.800Z,16.17
2018-01-13T07:54:21.036Z,17.57
2018-01-13T07:56:48.512Z,15.47
2018-01-13T07:59:15.984Z,16.40
2018-01-13T08:01:44.235Z,16.17
2018-01-13T08:04:11.703Z,17.07
2018-01-13T08:06:39.173Z,16.33
2018-01-13T08:09:07.422Z,17.97
2018-01-13T08:11:34.889Z,16.63
2018-01-13T08:14:02.360Z,15.87
2018-01-13T08:16:29.832Z,18.30
2018-01-13T08:18:58.079Z,15.53
2018-01-13T08:21:25.549Z,16.67
2018-01-13T08:23:53.053Z,15.50
2018-01-13T08:26:20.520Z,16.37
2018-01-13T08:28:47.995Z,13.23
2018-01-13T08:31:15.472Z,15.73
2018-01-13T08:33:42.970Z,17.47
2018-01-13T08:36:10.416Z,15.67
2018-01-13T08:38:38.662Z,14.93
2018-01-13T08:41:06.132Z,14.93
2018-01-13T08:43:33.609Z,15.93
2018-01-13T08:46:01.856Z,16.57
2018-01-13T08:48:29.328Z,15.67
2018-01-13T08:50:56.794Z,14.53
2018-01-13T08:53:24.265Z,13.73
2018-01-13T08:55:52.504Z,14.43
2018-01-13T08:58:19.989Z,15.97
2018-01-13T09:00:48.221Z,14.57
2018-01-13T09:03:15.696Z,13.37
2018-01-13T09:05:43.169Z,15.57
2018-01-13T09:08:10.640Z,14.40
2018-01-13T09:10:38.113Z,12.63
2018-01-13T09:13:05.590Z,13.43
2018-01-13T09:15:33.056Z,10.40
2018-01-13T09:18:00.532Z,12.10
2018-01-13T09:20:28.000Z,12.83
2018-01-13T09:22:55.475Z,12.03
2018-01-13T09:25:22.954Z,13.00
2018-01-13T09:27:51.192Z,12.27
2018-01-13T09:30:18.668Z,12.90
2018-01-13T09:32:46.141Z,12.90
2018-01-13T09:35:14.385Z,12.40
2018-01-13T09:37:41.860Z,11.37
2018-01-13T09:40:09.340Z,12.97
2018-01-13T09:42:37.571Z,11.83
2018-01-13T09:45:05.059Z,12.00
2018-01-13T09:47:33.137Z,12.70
2018-01-13T09:50:00.608Z,11.73
2018-01-13T09:52:28.865Z,10.90
2018-01-13T09:54:56.332Z,12.33
2018-01-13T09:57:24.575Z,12.23
2018-01-13T09:59:52.044Z,10.33
2018-01-13T10:02:19.520Z,10.60
2018-01-13T10:04:47.001Z,11.13
2018-01-13T10:07:15.229Z,9.97
2018-01-13T10:09:42.705Z,10.07
2018-01-13T10:12:10.172Z,11.27
2018-01-13T10:14:37.649Z,10.50
2018-01-13T10:17:05.883Z,10.27
2018-01-13T10:19:33.364Z,8.27
2018-01-13T10:22:00.838Z,7.70
2018-01-13T10:24:29.077Z,9.27
2018-01-13T10:26:56.545Z,8.10
2018-01-13T10:29:24.019Z,8.63
2018-01-13T10:31:52.262Z,9.20
2018-01-13T10:34:19.729Z,9.27
2018-01-13T10:36:47.196Z,8.67
2018-01-13T10:39:14.669Z,8.37
2018-01-13T10:41:42.135Z,9.23
2018-01-13T10:44:10.373Z,7.97
2018-01-13T10:46:38.108Z,8.27
2018-01-13T10:49:05.587Z,9.20
2018-01-13T10:51:33.066Z,9.20
2018-01-13T10:54:00.533Z,8.53
2018-01-13T10:56:28.008Z,8.97
2018-01-13T10:58:56.247Z,8.70
2018-01-13T11:01:23.712Z,9.07
2018-01-13T11:03:52.001Z,9.07
2018-01-13T11:06:19.463Z,9.30
2018-01-13T11:08:46.937Z,11.43
2018-01-13T11:11:15.168Z,10.07
2018-01-13T11:13:42.642Z,8.60
2018-01-13T11:16:10.104Z,9.80
2018-01-13T11:18:37.582Z,9.63
2018-01-13T11:21:05.816Z,10.17
2018-01-13T11:23:33.310Z,49.27
2018-01-13T11:26:00.785Z,11.90
2018-01-13T11:28:29.016Z,10.37
2018-01-13T11:30:56.495Z,8.83
2018-01-13T11:33:23.964Z,8.23
2018-01-13T11:35:52.200Z,8.47
2018-01-13T11:38:19.669Z,8.70
2018-01-13T11:40:47.140Z,8.17
2018-01-13T11:43:14.616Z,8.77
2018-01-13T11:45:42.874Z,7.83
2018-01-13T11:48:10.352Z,7.90
2018-01-13T11:50:37.816Z,9.83
2018-01-13T11:53:06.052Z,8.33
2018-01-13T11:55:33.513Z,9.30
2018-01-13T11:58:00.984Z,8.27
2018-01-13T12:00:28.445Z,8.27
2018-01-13T12:02:55.928Z,6.63
2018-01-13T12:05:24.155Z,7.87
2018-01-13T12:07:51.637Z,7.90
2018-01-13T12:10:19.104Z,7.27
2018-01-13T12:12:46.576Z,8.03
2018-01-13T12:15:14.811Z,7.47
2018-01-13T12:17:42.300Z,6.70
2018-01-13T12:20:09.773Z,8.27
2018-01-13T12:22:38.020Z,7.70
2018-01-13T12:25:05.498Z,9.30
2018-01-13T12:27:33.731Z,6.67
2018-01-13T12:30:01.972Z,8.30
2018-01-13T12:32:29.872Z,7.50
2018-01-13T12:34:57.346Z,8.90
2018-01-13T12:37:24.812Z,7.77
2018-01-13T12:39:52.281Z,8.30
2018-01-13T12:42:19.748Z,8.27
2018-01-13T12:44:48.001Z,7.23
2018-01-13T12:47:15.464Z,9.30
2018-01-13T12:49:42.942Z,8.67
2018-01-13T12:52:11.185Z,8.63
2018-01-13T12:54:38.655Z,10.30
2018-01-13T12:57:06.181Z,8.13
2018-01-13T12:59:34.365Z,7.27
2018-01-13T13:02:02.121Z,7.60
2018-01-13T13:04:29.588Z,8.13
2018-01-13T13:06:57.064Z,8.37
2018-01-13T13:09:24.530Z,7.53
2018-01-13T13:11:52.004Z,7.60
2018-01-13T13:14:20.246Z,8.37
2018-01-13T13:16:47.720Z,8.97
2018-01-13T13:19:15.186Z,9.40
2018-01-13T13:21:42.664Z,9.63
2018-01-13T13:24:10.905Z,9.67
2018-01-13T13:26:38.387Z,9.20
2018-01-13T13:29:05.869Z,8.63
2018-01-13T13:31:34.088Z,8.07
2018-01-13T13:34:01.561Z,8.87
2018-01-13T13:36:29.036Z,8.83
2018-01-13T13:38:56.516Z,8.50
2018-01-13T13:41:24.753Z,8.67
2018-01-13T13:43:52.225Z,8.17
2018-01-13T13:46:19.688Z,8.33
2018-01-13T13:48:47.163Z,8.67
2018-01-13T13:51:15.396Z,8.63
2018-01-13T13:53:42.872Z,8.40
2018-01-13T13:56:10.340Z,7.23
2018-01-13T13:58:37.814Z,8.97
2018-01-13T14:01:28.368Z,8.20
2018-01-13T14:03:33.532Z,9.23
2018-01-13T14:06:00.996Z,8.27
2018-01-13T14:08:29.260Z,7.57
2018-01-13T14:10:56.722Z,8.67
2018-01-13T14:13:24.192Z,8.60
2018-01-13T14:15:51.668Z,8.37
2018-01-13T14:18:19.142Z,8.63
2018-01-13T14:20:46.614Z,8.50
2018-01-13T14:23:14.850Z,8.53
2018-01-13T14:25:43.096Z,7.47
2018-01-13T14:28:10.572Z,8.20
2018-01-13T14:30:38.036Z,7.90
2018-01-13T14:33:06.276Z,8.17
2018-01-13T14:35:33.739Z,7.90
2018-01-13T14:38:01.215Z,8.67
2018-01-13T14:40:28.672Z,8.17
2018-01-13T14:42:56.144Z,8.67
2018-01-13T14:45:24.372Z,8.13
2018-01-13T14:47:51.853Z,8.20
2018-01-13T14:50:19.324Z,7.50
2018-01-13T14:52:46.796Z,9.23
2018-01-13T14:55:15.044Z,8.00
2018-01-13T14:57:43.087Z,8.60
2018-01-13T15:00:10.552Z,7.60
2018-01-13T15:02:38.028Z,8.20
2018-01-13T15:05:05.497Z,8.17
2018-01-13T15:07:32.960Z,8.13
2018-01-13T15:10:00.436Z,8.20
2018-01-13T15:12:28.811Z,8.07
2018-01-13T15:14:56.272Z,9.23
2018-01-13T15:17:24.508Z,9.13
2018-01-13T15:19:51.975Z,8.63
2018-01-13T15:22:19.448Z,8.80
2018-01-13T15:24:46.912Z,8.00
2018-01-13T15:27:14.385Z,8.03
2018-01-13T15:29:42.613Z,9.30
2018-01-13T15:32:10.360Z,9.57
2018-01-13T15:34:37.829Z,9.73
2018-01-13T15:37:05.300Z,9.87
2018-01-13T15:39:32.769Z,12.27
2018-01-13T15:42:00.232Z,10.07
2018-01-13T15:44:27.729Z,9.77
2018-01-13T15:46:55.192Z,9.20
2018-01-13T15:49:22.656Z,9.70
2018-01-13T15:51:50.137Z,10.03
2018-01-13T15:54:17.605Z,10.07
2018-01-13T15:56:45.076Z,9.70
2018-01-13T15:59:12.548Z,10.37
2018-01-13T16:01:40.029Z,10.40
2018-01-13T16:04:08.264Z,10.43
2018-01-13T16:06:35.756Z,10.33
2018-01-13T16:09:04.002Z,11.23
2018-01-13T16:11:31.510Z,11.07
2018-01-13T16:13:59.031Z,11.47
2018-01-13T16:16:26.505Z,11.60
2018-01-13T16:18:53.983Z,11.90
2018-01-13T16:21:21.457Z,11.67
2018-01-13T16:23:48.933Z,11.73
2018-01-13T16:26:17.180Z,11.87
2018-01-13T16:28:44.644Z,11.37
2018-01-13T16:31:12.125Z,21.37
2018-01-13T16:33:39.597Z,11.97
2018-01-13T16:36:07.068Z,12.57
2018-01-13T16:38:34.588Z,13.17
2018-01-13T16:41:02.103Z,12.60
2018-01-13T16:43:29.614Z,13.53
2018-01-13T16:45:57.076Z,12.40
2018-01-13T16:48:24.547Z,13.47
2018-01-13T16:50:52.024Z,12.57
2018-01-13T16:53:19.505Z,13.30
2018-01-13T16:55:47.732Z,13.33
2018-01-13T16:58:15.208Z,13.80
2018-01-13T17:00:42.684Z,14.47
2018-01-13T17:03:10.157Z,15.70
2018-01-13T17:05:38.517Z,14.10
2018-01-13T17:08:06.004Z,14.17
2018-01-13T17:10:34.240Z,15.23
2018-01-13T17:13:01.763Z,13.37
2018-01-13T17:15:29.232Z,13.33
2018-01-13T17:17:56.700Z,14.27
2018-01-13T17:20:24.185Z,14.73
2018-01-13T17:22:51.652Z,14.53
2018-01-13T17:25:19.166Z,13.70
2018-01-13T17:27:46.632Z,14.07
2018-01-13T17:30:14.194Z,14.30
2018-01-13T17:32:41.705Z,13.70
2018-01-13T17:35:09.954Z,14.00
2018-01-13T17:37:37.425Z,13.57
2018-01-13T17:40:04.892Z,13.40
2018-01-13T17:42:33.174Z,13.07
2018-01-13T17:45:01.446Z,14.87
2018-01-13T17:47:29.742Z,13.67
2018-01-13T17:49:57.963Z,13.83
2018-01-13T17:52:25.463Z,14.43
2018-01-13T17:54:52.922Z,15.57
2018-01-13T17:57:21.218Z,13.03
2018-01-13T17:59:48.688Z,14.60
2018-01-13T18:02:16.155Z,13.57
2018-01-13T18:04:43.674Z,13.87
2018-01-13T18:07:12.064Z,14.93
2018-01-13T18:09:39.586Z,13.50
2018-01-13T18:12:07.052Z,13.70
2018-01-13T18:14:34.616Z,14.40
2018-01-13T18:17:02.136Z,15.47
2018-01-13T18:19:48.364Z,14.93
2018-01-13T18:22:15.829Z,29.40
2018-01-13T18:24:43.304Z,15.33
2018-01-13T18:27:11.546Z,14.63
2018-01-13T18:29:39.202Z,16.37
2018-01-13T18:32:06.677Z,14.60
2018-01-13T18:34:34.158Z,14.53
2018-01-13T18:37:02.399Z,13.10
2018-01-13T18:39:29.868Z,14.73
2018-01-13T18:41:57.344Z,14.23
2018-01-13T18:44:25.627Z,13.57
2018-01-13T18:46:53.914Z,13.93
2018-01-13T18:49:22.144Z,13.70
2018-01-13T18:51:49.883Z,17.10
2018-01-13T18:54:17.396Z,12.70
2018-01-13T18:56:44.905Z,13.77
2018-01-13T18:59:12.417Z,13.13
2018-01-13T19:01:40.405Z,11.83
2018-01-13T19:04:07.886Z,13.20
2018-01-13T19:06:35.360Z,12.87
2018-01-13T19:09:02.891Z,12.10
2018-01-13T19:11:30.399Z,11.73
2018-01-13T19:13:57.860Z,11.90
2018-01-13T19:16:25.336Z,12.53
2018-01-13T19:18:52.843Z,12.87
2018-01-13T19:21:20.614Z,12.70
2018-01-13T19:23:48.119Z,12.53
2018-01-13T19:26:15.639Z,12.20
2018-01-13T19:28:43.101Z,12.63
2018-01-13T19:31:10.575Z,13.53
2018-01-13T19:33:38.095Z,12.07
2018-01-13T19:36:05.624Z,12.70
2018-01-13T19:38:33.887Z,13.50
2018-01-13T19:41:01.400Z,13.77
2018-01-13T19:43:28.902Z,13.10
2018-01-13T19:45:56.415Z,11.60
2018-01-13T19:48:23.892Z,14.00
2018-01-13T19:50:51.406Z,13.63
2018-01-13T19:53:19.683Z,12.57
2018-01-13T19:55:47.988Z,12.07
2018-01-13T19:58:15.503Z,12.20
2018-01-13T20:00:42.969Z,12.93
2018-01-13T20:03:11.296Z,12.40
2018-01-13T20:05:39.581Z,12.83
2018-01-13T20:08:07.109Z,12.43
2018-01-13T20:10:34.623Z,12.50
2018-01-13T20:13:02.140Z,11.77
2018-01-13T20:15:29.665Z,12.90
2018-01-13T20:17:57.943Z,12.83
2018-01-13T20:20:26.227Z,12.83
2018-01-13T20:22:53.753Z,12.70
2018-01-13T20:25:21.273Z,11.77
2018-01-13T20:27:48.808Z,13.17
2018-01-13T20:30:16.315Z,12.73
2018-01-13T20:32:44.168Z,12.07
2018-01-13T20:35:11.674Z,14.40
2018-01-13T20:37:39.962Z,12.53
2018-01-13T20:40:08.245Z,12.37
2018-01-13T20:42:36.532Z,12.33
2018-01-13T20:45:03.998Z,14.03
2018-01-13T20:47:31.531Z,13.10
2018-01-13T20:49:59.820Z,13.43
2018-01-13T20:52:27.297Z,12.60
2018-01-13T20:54:54.813Z,11.40
2018-01-13T20:57:22.350Z,13.23
2018-01-13T20:59:49.872Z,12.90
2018-01-13T21:02:17.388Z,13.80
2018-01-13T21:04:44.910Z,12.97
2018-01-13T21:07:12.453Z,12.13
2018-01-13T21:09:39.968Z,12.50
2018-01-13T21:12:07.490Z,13.87
2018-01-13T21:14:35.010Z,13.13
2018-01-13T21:17:03.278Z,11.87
2018-01-13T21:19:31.572Z,13.00
2018-01-13T21:21:59.079Z,12.93
2018-01-13T21:24:26.573Z,12.43
2018-01-13T21:26:54.859Z,12.63
2018-01-13T21:29:23.136Z,11.90
2018-01-13T21:31:51.424Z,12.60
2018-01-13T21:34:18.939Z,12.40
2018-01-13T21:36:46.459Z,12.73
2018-01-13T21:39:13.967Z,13.40
2018-01-13T21:41:41.494Z,13.63
2018-01-13T21:44:09.007Z,12.97
2018-01-13T21:46:37.283Z,12.53
2018-01-13T21:49:05.564Z,12.30
2018-01-13T21:51:33.100Z,12.77
2018-01-13T21:54:00.564Z,12.57
2018-01-13T21:56:28.862Z,12.87
2018-01-13T21:58:57.131Z,12.90
2018-01-13T22:01:25.534Z,13.00
2018-01-13T22:03:53.056Z,11.87
2018-01-13T22:06:20.594Z,12.30
2018-01-13T22:08:48.091Z,10.43
2018-01-13T22:11:16.361Z,11.23
2018-01-13T22:13:44.647Z,11.67
2018-01-13T22:16:12.926Z,11.73
2018-01-13T22:18:41.194Z,11.67
2018-01-13T22:21:09.424Z,11.77
2018-01-13T22:23:37.025Z,11.20
2018-01-13T22:26:04.492Z,11.57
2018-01-13T22:28:32.770Z,12.03
2018-01-13T22:31:01.082Z,11.53
2018-01-13T22:33:28.599Z,11.23
2018-01-13T22:35:56.844Z,11.63
2018-01-13T22:38:24.359Z,11.70
2018-01-13T22:40:51.841Z,11.27
2018-01-13T22:43:19.359Z,11.03
2018-01-13T22:45:47.646Z,11.77
2018-01-13T22:48:15.872Z,12.67
2018-01-13T22:50:43.421Z,13.07
2018-01-13T22:53:10.884Z,12.70
2018-01-13T22:55:39.173Z,12.50
2018-01-13T22:58:06.696Z,12.60
2018-01-13T23:00:39.948Z,11.60
2018-01-13T23:03:07.472Z,13.60
2018-01-13T23:05:34.974Z,12.80
2018-01-13T23:08:03.506Z,11.80
2018-01-13T23:10:31.023Z,12.13
2018-01-13T23:12:59.259Z,12.67
2018-01-13T23:15:26.835Z,13.13
2018-01-13T23:17:54.360Z,12.20
2018-01-13T23:20:21.868Z,13.40
2018-01-13T23:22:50.096Z,13.20
2018-01-13T23:25:18.336Z,13.33
2018-01-13T23:27:45.809Z,12.17
2018-01-13T23:30:13.325Z,13.60
2018-01-13T23:32:40.822Z,11.87
2018-01-13T23:35:08.298Z,11.50
2018-01-13T23:37:35.807Z,11.40
2018-01-13T23:40:03.281Z,12.13
2018-01-13T23:42:31.562Z,12.43
2018-01-13T23:44:59.802Z,12.97
2018-01-13T23:47:27.306Z,12.50
2018-01-13T23:49:54.814Z,11.60
2018-01-13T23:52:22.280Z,11.67
2018-01-13T23:54:49.810Z,12.17
2018-01-13T23:57:17.272Z,11.23
2018-01-13T23:59:44.798Z,13.30
